sensor_id;sensor_type;location;lat;lon;timestamp;pressure;altitude;pressure_sealevel;temperature;humidity
57644;BME280;43474;46.510;6.686;2023-07-31T00:00:06;96681.25;;;23.15;59.55
57644;BME280;43474;46.510;6.686;2023-07-31T00:02:54;96687.66;;;23.19;59.00
57644;BME280;43474;46.510;6.686;2023-07-31T00:05:20;96680.81;;;23.21;59.19
57644;BME280;43474;46.510;6.686;2023-07-31T00:07:46;96678.59;;;23.24;59.47
57644;BME280;43474;46.510;6.686;2023-07-31T00:10:11;96682.59;;;23.26;60.40
57644;BME280;43474;46.510;6.686;2023-07-31T00:12:38;96679.09;;;23.26;59.76
57644;BME280;43474;46.510;6.686;2023-07-31T00:15:06;96689.09;;;23.25;59.84
57644;BME280;43474;46.510;6.686;2023-07-31T00:17:31;96682.91;;;23.25;60.13
57644;BME280;43474;46.510;6.686;2023-07-31T00:19:57;96679.72;;;23.23;59.97
57644;BME280;43474;46.510;6.686;2023-07-31T00:22:22;96680.81;;;23.21;60.06
57644;BME280;43474;46.510;6.686;2023-07-31T00:24:49;96684.75;;;23.15;59.50
57644;BME280;43474;46.510;6.686;2023-07-31T00:27:14;96691.47;;;23.18;59.73
57644;BME280;43474;46.510;6.686;2023-07-31T00:29:40;96679.84;;;23.17;59.38
57644;BME280;43474;46.510;6.686;2023-07-31T00:32:06;96671.25;;;23.15;59.16
57644;BME280;43474;46.510;6.686;2023-07-31T00:34:32;96673.47;;;23.13;59.10
57644;BME280;43474;46.510;6.686;2023-07-31T00:36:57;96671.19;;;23.07;58.85
57644;BME280;43474;46.510;6.686;2023-07-31T00:39:23;96668.34;;;23.03;58.60
57644;BME280;43474;46.510;6.686;2023-07-31T00:41:49;96665.31;;;23.05;58.36
57644;BME280;43474;46.510;6.686;2023-07-31T00:44:14;96663.09;;;23.07;58.84
57644;BME280;43474;46.510;6.686;2023-07-31T00:46:40;96658.78;;;23.06;58.57
57644;BME280;43474;46.510;6.686;2023-07-31T00:49:06;96653.25;;;23.11;59.27
57644;BME280;43474;46.510;6.686;2023-07-31T00:51:32;96658.97;;;23.09;58.82
57644;BME280;43474;46.510;6.686;2023-07-31T00:53:57;96651.34;;;23.11;59.11
57644;BME280;43474;46.510;6.686;2023-07-31T00:56:23;96643.22;;;23.11;59.09
57644;BME280;43474;46.510;6.686;2023-07-31T00:58:50;96646.72;;;23.12;58.83
57644;BME280;43474;46.510;6.686;2023-07-31T01:01:15;96644.03;;;23.12;58.81
57644;BME280;43474;46.510;6.686;2023-07-31T01:03:41;96640.84;;;23.10;58.61
57644;BME280;43474;46.510;6.686;2023-07-31T01:08:44;96644.84;;;23.12;59.19
57644;BME280;43474;46.510;6.686;2023-07-31T01:11:21;96640.72;;;23.15;59.06
57644;BME280;43474;46.510;6.686;2023-07-31T01:13:51;96633.72;;;23.14;59.18
57644;BME280;43474;46.510;6.686;2023-07-31T01:16:17;96632.91;;;23.13;59.60
57644;BME280;43474;46.510;6.686;2023-07-31T01:18:42;96635.91;;;23.12;59.33
57644;BME280;43474;46.510;6.686;2023-07-31T01:21:23;96637.53;;;23.13;59.45
57644;BME280;43474;46.510;6.686;2023-07-31T01:26:49;96631.47;;;23.16;59.36
57644;BME280;43474;46.510;6.686;2023-07-31T01:29:29;96635.78;;;23.17;59.39
57644;BME280;43474;46.510;6.686;2023-07-31T01:32:01;96636.09;;;23.15;59.38
57644;BME280;43474;46.510;6.686;2023-07-31T01:34:28;96629.41;;;23.13;59.41
57644;BME280;43474;46.510;6.686;2023-07-31T01:36:56;96631.63;;;23.11;59.36
57644;BME280;43474;46.510;6.686;2023-07-31T01:39:22;96630.81;;;23.10;59.26
57644;BME280;43474;46.510;6.686;2023-07-31T01:41:48;96626.34;;;23.06;58.86
57644;BME280;43474;46.510;6.686;2023-07-31T01:44:13;96622.53;;;23.07;58.95
57644;BME280;43474;46.510;6.686;2023-07-31T01:46:39;96620.16;;;23.05;59.01
57644;BME280;43474;46.510;6.686;2023-07-31T01:49:05;96612.84;;;23.06;58.95
57644;BME280;43474;46.510;6.686;2023-07-31T01:51:31;96612.34;;;23.04;59.24
57644;BME280;43474;46.510;6.686;2023-07-31T01:54:01;96603.13;;;23.05;58.88
57644;BME280;43474;46.510;6.686;2023-07-31T01:56:27;96606.94;;;23.04;58.80
57644;BME280;43474;46.510;6.686;2023-07-31T01:58:53;96610.44;;;23.04;58.90
57644;BME280;43474;46.510;6.686;2023-07-31T02:01:18;96612.03;;;23.05;58.92
57644;BME280;43474;46.510;6.686;2023-07-31T02:03:44;96605.03;;;23.04;59.02
57644;BME280;43474;46.510;6.686;2023-07-31T02:06:09;96600.75;;;23.03;59.02
57644;BME280;43474;46.510;6.686;2023-07-31T02:08:35;96601.84;;;23.02;58.84
57644;BME280;43474;46.510;6.686;2023-07-31T02:11:01;96599.78;;;22.99;58.61
57644;BME280;43474;46.510;6.686;2023-07-31T02:13:26;96589.28;;;22.98;58.63
57644;BME280;43474;46.510;6.686;2023-07-31T02:15:52;96595.97;;;23.00;58.74
57644;BME280;43474;46.510;6.686;2023-07-31T02:18:17;96601.84;;;23.02;58.90
57644;BME280;43474;46.510;6.686;2023-07-31T02:20:43;96596.94;;;23.04;59.00
57644;BME280;43474;46.510;6.686;2023-07-31T02:23:11;96602.19;;;23.09;59.19
57644;BME280;43474;46.510;6.686;2023-07-31T02:25:37;96607.00;;;23.12;59.61
57644;BME280;43474;46.510;6.686;2023-07-31T02:28:02;96596.97;;;23.13;59.64
57644;BME280;43474;46.510;6.686;2023-07-31T02:30:28;96599.34;;;23.14;60.18
57644;BME280;43474;46.510;6.686;2023-07-31T02:32:54;96598.75;;;23.17;60.23
57644;BME280;43474;46.510;6.686;2023-07-31T02:35:19;96597.91;;;23.17;60.55
57644;BME280;43474;46.510;6.686;2023-07-31T02:37:45;96597.63;;;23.18;60.71
57644;BME280;43474;46.510;6.686;2023-07-31T02:40:11;96597.13;;;23.16;60.98
57644;BME280;43474;46.510;6.686;2023-07-31T02:42:36;96599.84;;;23.16;61.17
57644;BME280;43474;46.510;6.686;2023-07-31T02:45:02;96589.34;;;23.15;61.15
57644;BME280;43474;46.510;6.686;2023-07-31T02:47:28;96594.13;;;23.18;61.31
57644;BME280;43474;46.510;6.686;2023-07-31T02:49:53;96600.34;;;23.18;61.66
57644;BME280;43474;46.510;6.686;2023-07-31T02:52:19;96621.63;;;23.20;61.79
57644;BME280;43474;46.510;6.686;2023-07-31T02:54:45;96617.34;;;23.19;61.87
57644;BME280;43474;46.510;6.686;2023-07-31T02:57:10;96619.72;;;23.20;62.09
57644;BME280;43474;46.510;6.686;2023-07-31T02:59:36;96610.34;;;23.18;62.12
57644;BME280;43474;46.510;6.686;2023-07-31T03:02:01;96625.94;;;23.21;62.13
57644;BME280;43474;46.510;6.686;2023-07-31T03:04:27;96622.75;;;23.19;62.36
57644;BME280;43474;46.510;6.686;2023-07-31T03:06:52;96616.22;;;23.20;62.51
57644;BME280;43474;46.510;6.686;2023-07-31T03:09:18;96614.31;;;23.20;62.56
57644;BME280;43474;46.510;6.686;2023-07-31T03:11:43;96624.66;;;23.18;62.71
57644;BME280;43474;46.510;6.686;2023-07-31T03:14:09;96625.47;;;23.19;62.58
57644;BME280;43474;46.510;6.686;2023-07-31T03:16:34;96623.22;;;23.21;62.83
57644;BME280;43474;46.510;6.686;2023-07-31T03:19:00;96626.72;;;23.21;62.90
57644;BME280;43474;46.510;6.686;2023-07-31T03:21:25;96623.22;;;23.21;62.85
57644;BME280;43474;46.510;6.686;2023-07-31T03:23:51;96615.91;;;23.21;63.04
57644;BME280;43474;46.510;6.686;2023-07-31T03:26:17;96616.22;;;23.20;63.33
57644;BME280;43474;46.510;6.686;2023-07-31T03:28:42;96607.81;;;23.21;63.09
57644;BME280;43474;46.510;6.686;2023-07-31T03:31:08;96609.72;;;23.21;63.24
57644;BME280;43474;46.510;6.686;2023-07-31T03:33:34;96609.25;;;23.19;63.15
57644;BME280;43474;46.510;6.686;2023-07-31T03:35:59;96601.13;;;23.19;63.15
57644;BME280;43474;46.510;6.686;2023-07-31T03:38:25;96608.91;;;23.20;63.27
57644;BME280;43474;46.510;6.686;2023-07-31T03:40:50;96617.03;;;23.20;63.20
57644;BME280;43474;46.510;6.686;2023-07-31T03:43:16;96623.22;;;23.21;63.35
57644;BME280;43474;46.510;6.686;2023-07-31T03:45:42;96616.56;;;23.18;63.38
57644;BME280;43474;46.510;6.686;2023-07-31T03:48:07;96624.66;;;23.18;63.32
57644;BME280;43474;46.510;6.686;2023-07-31T03:50:33;96616.22;;;23.20;63.26
57644;BME280;43474;46.510;6.686;2023-07-31T03:52:59;96612.25;;;23.17;63.33
57644;BME280;43474;46.510;6.686;2023-07-31T03:55:24;96611.63;;;23.20;63.32
57644;BME280;43474;46.510;6.686;2023-07-31T03:57:50;96606.53;;;23.19;63.51
57644;BME280;43474;46.510;6.686;2023-07-31T04:00:15;96608.13;;;23.20;63.32
57644;BME280;43474;46.510;6.686;2023-07-31T04:02:41;96606.22;;;23.20;63.49
57644;BME280;43474;46.510;6.686;2023-07-31T04:05:07;96608.44;;;23.18;63.26
57644;BME280;43474;46.510;6.686;2023-07-31T04:07:33;96616.22;;;23.20;63.22
57644;BME280;43474;46.510;6.686;2023-07-31T04:09:59;96620.84;;;23.19;63.34
57644;BME280;43474;46.510;6.686;2023-07-31T04:12:25;96627.38;;;23.18;63.04
57644;BME280;43474;46.510;6.686;2023-07-31T04:14:50;96628.50;;;23.17;62.88
57644;BME280;43474;46.510;6.686;2023-07-31T04:17:19;96625.47;;;23.19;62.78
57644;BME280;43474;46.510;6.686;2023-07-31T04:19:44;96633.56;;;23.19;62.47
57644;BME280;43474;46.510;6.686;2023-07-31T04:22:10;96633.56;;;23.19;62.63
57644;BME280;43474;46.510;6.686;2023-07-31T04:24:36;96625.78;;;23.17;62.43
57644;BME280;43474;46.510;6.686;2023-07-31T04:27:01;96647.41;;;23.17;62.41
57644;BME280;43474;46.510;6.686;2023-07-31T04:29:27;96650.91;;;23.18;62.44
57644;BME280;43474;46.510;6.686;2023-07-31T04:31:52;96654.41;;;23.18;62.57
57644;BME280;43474;46.510;6.686;2023-07-31T04:34:18;96647.69;;;23.16;62.43
57644;BME280;43474;46.510;6.686;2023-07-31T04:36:43;96653.63;;;23.18;62.71
57644;BME280;43474;46.510;6.686;2023-07-31T04:39:09;96647.69;;;23.16;63.06
57644;BME280;43474;46.510;6.686;2023-07-31T04:41:35;96647.41;;;23.17;63.34
57644;BME280;43474;46.510;6.686;2023-07-31T04:44:01;96649.78;;;23.19;63.50
57644;BME280;43474;46.510;6.686;2023-07-31T04:46:26;96644.72;;;23.17;63.58
57644;BME280;43474;46.510;6.686;2023-07-31T04:48:52;96645.19;;;23.19;63.61
57644;BME280;43474;46.510;6.686;2023-07-31T04:51:17;96645.19;;;23.19;63.69
57644;BME280;43474;46.510;6.686;2023-07-31T04:53:43;96645.19;;;23.19;63.63
57644;BME280;43474;46.510;6.686;2023-07-31T04:56:08;96636.28;;;23.19;63.81
57644;BME280;43474;46.510;6.686;2023-07-31T04:58:34;96636.28;;;23.19;63.90
57644;BME280;43474;46.510;6.686;2023-07-31T05:01:00;96634.38;;;23.19;63.83
57644;BME280;43474;46.510;6.686;2023-07-31T05:03:25;96628.16;;;23.19;63.96
57644;BME280;43474;46.510;6.686;2023-07-31T05:05:51;96631.97;;;23.18;63.90
57644;BME280;43474;46.510;6.686;2023-07-31T05:08:16;96635.47;;;23.18;63.94
57644;BME280;43474;46.510;6.686;2023-07-31T05:10:43;96647.56;;;23.21;64.14
57644;BME280;43474;46.510;6.686;2023-07-31T05:13:08;96645.66;;;23.21;64.28
57644;BME280;43474;46.510;6.686;2023-07-31T05:15:34;96657.59;;;23.20;64.49
57644;BME280;43474;46.510;6.686;2023-07-31T05:18:00;96661.88;;;23.21;64.49
57644;BME280;43474;46.510;6.686;2023-07-31T05:20:25;96660.78;;;23.23;64.55
57644;BME280;43474;46.510;6.686;2023-07-31T05:22:51;96648.34;;;23.21;64.55
57644;BME280;43474;46.510;6.686;2023-07-31T05:25:17;96647.56;;;23.21;64.79
57644;BME280;43474;46.510;6.686;2023-07-31T05:27:42;96656.47;;;23.21;64.70
57644;BME280;43474;46.510;6.686;2023-07-31T05:30:08;96647.28;;;23.23;64.75
57644;BME280;43474;46.510;6.686;2023-07-31T05:32:34;96650.28;;;23.21;64.92
57644;BME280;43474;46.510;6.686;2023-07-31T05:34:59;96650.59;;;23.19;64.96
57644;BME280;43474;46.510;6.686;2023-07-31T05:37:25;96655.38;;;23.23;64.96
57644;BME280;43474;46.510;6.686;2023-07-31T05:39:50;96657.25;;;23.22;65.11
57644;BME280;43474;46.510;6.686;2023-07-31T05:42:17;96664.28;;;23.23;65.39
57644;BME280;43474;46.510;6.686;2023-07-31T05:44:43;96660.78;;;23.23;65.71
57644;BME280;43474;46.510;6.686;2023-07-31T05:47:09;96667.59;;;23.20;66.02
57644;BME280;43474;46.510;6.686;2023-07-31T05:49:34;96660.28;;;23.20;66.10
57644;BME280;43474;46.510;6.686;2023-07-31T05:52:00;96660.47;;;23.24;66.08
57644;BME280;43474;46.510;6.686;2023-07-31T05:54:25;96657.94;;;23.28;66.06
57644;BME280;43474;46.510;6.686;2023-07-31T05:56:51;96662.53;;;23.27;65.99
57644;BME280;43474;46.510;6.686;2023-07-31T05:59:16;96656.38;;;23.35;65.95
57644;BME280;43474;46.510;6.686;2023-07-31T06:01:42;96645.38;;;23.32;66.70
57644;BME280;43474;46.510;6.686;2023-07-31T06:04:08;96626.91;;;23.25;66.81
57644;BME280;43474;46.510;6.686;2023-07-31T06:06:34;96639.44;;;23.21;66.71
57644;BME280;43474;46.510;6.686;2023-07-31T06:09:00;96632.13;;;23.13;66.81
57644;BME280;43474;46.510;6.686;2023-07-31T06:11:25;96643.72;;;23.13;66.56
57644;BME280;43474;46.510;6.686;2023-07-31T06:13:51;96625.91;;;23.12;66.39
57644;BME280;43474;46.510;6.686;2023-07-31T06:16:17;96622.72;;;23.10;66.50
57644;BME280;43474;46.510;6.686;2023-07-31T06:18:42;96622.41;;;23.12;66.24
57644;BME280;43474;46.510;6.686;2023-07-31T06:21:09;96627.66;;;23.08;66.28
57644;BME280;43474;46.510;6.686;2023-07-31T06:23:35;96625.56;;;23.05;66.31
57644;BME280;43474;46.510;6.686;2023-07-31T06:26:01;96627.47;;;23.05;65.70
57644;BME280;43474;46.510;6.686;2023-07-31T06:28:30;96624.44;;;23.06;65.03
57644;BME280;43474;46.510;6.686;2023-07-31T06:30:57;96624.72;;;22.96;64.86
57644;BME280;43474;46.510;6.686;2023-07-31T06:33:22;96615.03;;;22.95;64.48
57644;BME280;43474;46.510;6.686;2023-07-31T06:35:48;96621.88;;;23.01;64.50
57644;BME280;43474;46.510;6.686;2023-07-31T06:38:13;96621.41;;;22.99;64.60
57644;BME280;43474;46.510;6.686;2023-07-31T06:40:39;96629.13;;;22.92;64.77
57644;BME280;43474;46.510;6.686;2023-07-31T06:43:05;96628.34;;;22.91;65.04
57644;BME280;43474;46.510;6.686;2023-07-31T06:45:34;96632.97;;;22.91;65.21
57644;BME280;43474;46.510;6.686;2023-07-31T06:48:01;96641.84;;;22.91;65.50
57644;BME280;43474;46.510;6.686;2023-07-31T06:50:33;96639.66;;;22.93;65.46
57644;BME280;43474;46.510;6.686;2023-07-31T06:52:59;96633.28;;;22.89;65.39
57644;BME280;43474;46.510;6.686;2023-07-31T06:55:25;96627.09;;;22.89;65.61
57644;BME280;43474;46.510;6.686;2023-07-31T06:57:53;96626.88;;;22.85;65.75
57644;BME280;43474;46.510;6.686;2023-07-31T07:00:19;96623.84;;;22.87;65.52
57644;BME280;43474;46.510;6.686;2023-07-31T07:02:45;96630.25;;;22.91;65.76
57644;BME280;43474;46.510;6.686;2023-07-31T07:05:12;96629.13;;;22.92;65.77
57644;BME280;43474;46.510;6.686;2023-07-31T07:07:38;96628.66;;;22.90;66.02
57644;BME280;43474;46.510;6.686;2023-07-31T07:10:04;96625.97;;;22.90;66.31
57644;BME280;43474;46.510;6.686;2023-07-31T07:12:31;96620.56;;;22.90;66.30
57644;BME280;43474;46.510;6.686;2023-07-31T07:14:57;96620.56;;;22.90;66.14
57644;BME280;43474;46.510;6.686;2023-07-31T07:17:23;96600.06;;;22.89;66.26
57644;BME280;43474;46.510;6.686;2023-07-31T07:19:49;96602.94;;;22.92;66.35
57644;BME280;43474;46.510;6.686;2023-07-31T07:22:15;96597.34;;;22.89;66.17
57644;BME280;43474;46.510;6.686;2023-07-31T07:24:40;96602.13;;;22.92;66.06
57644;BME280;43474;46.510;6.686;2023-07-31T07:27:06;96602.28;;;22.95;66.14
57644;BME280;43474;46.510;6.686;2023-07-31T07:29:33;96605.78;;;22.96;66.27
57644;BME280;43474;46.510;6.686;2023-07-31T07:31:59;96607.09;;;22.99;66.31
57644;BME280;43474;46.510;6.686;2023-07-31T07:34:26;96609.63;;;22.95;66.57
57644;BME280;43474;46.510;6.686;2023-07-31T07:36:52;96601.50;;;22.95;66.58
57644;BME280;43474;46.510;6.686;2023-07-31T07:39:17;96598.97;;;22.99;66.37
57644;BME280;43474;46.510;6.686;2023-07-31T07:41:43;96600.44;;;23.05;66.53
57644;BME280;43474;46.510;6.686;2023-07-31T07:44:08;96601.69;;;23.07;66.47
57644;BME280;43474;46.510;6.686;2023-07-31T07:46:34;96611.44;;;23.08;66.48
57644;BME280;43474;46.510;6.686;2023-07-31T07:48:59;96605.69;;;23.10;66.32
57644;BME280;43474;46.510;6.686;2023-07-31T07:51:25;96613.03;;;23.09;66.39
57644;BME280;43474;46.510;6.686;2023-07-31T07:53:51;96612.41;;;23.12;66.26
57644;BME280;43474;46.510;6.686;2023-07-31T07:56:17;96606.16;;;23.12;66.35
57644;BME280;43474;46.510;6.686;2023-07-31T07:58:42;96607.00;;;23.12;66.28
57644;BME280;43474;46.510;6.686;2023-07-31T08:01:08;96614.78;;;23.14;66.22
57644;BME280;43474;46.510;6.686;2023-07-31T08:03:33;96612.09;;;23.14;66.29
57644;BME280;43474;46.510;6.686;2023-07-31T08:06:00;96617.16;;;23.15;66.27
57644;BME280;43474;46.510;6.686;2023-07-31T08:08:25;96620.66;;;23.16;66.14
57644;BME280;43474;46.510;6.686;2023-07-31T08:10:51;96625.78;;;23.17;66.27
57644;BME280;43474;46.510;6.686;2023-07-31T08:13:16;96624.97;;;23.17;66.50
57644;BME280;43474;46.510;6.686;2023-07-31T08:15:42;96621.00;;;23.14;66.33
57644;BME280;43474;46.510;6.686;2023-07-31T08:18:08;96616.56;;;23.18;66.51
57644;BME280;43474;46.510;6.686;2023-07-31T08:20:34;96614.16;;;23.17;66.40
57644;BME280;43474;46.510;6.686;2023-07-31T08:23:00;96609.25;;;23.19;66.68
57644;BME280;43474;46.510;6.686;2023-07-31T08:25:25;96601.91;;;23.19;66.63
57644;BME280;43474;46.510;6.686;2023-07-31T08:27:51;96605.41;;;23.20;66.74
57644;BME280;43474;46.510;6.686;2023-07-31T08:30:19;96601.59;;;23.21;66.66
57644;BME280;43474;46.510;6.686;2023-07-31T08:32:44;96601.59;;;23.21;66.68
57644;BME280;43474;46.510;6.686;2023-07-31T08:35:10;96601.31;;;23.23;66.77
57644;BME280;43474;46.510;6.686;2023-07-31T08:37:38;96599.41;;;23.23;66.80
57644;BME280;43474;46.510;6.686;2023-07-31T08:40:05;96603.19;;;23.22;66.80
57644;BME280;43474;46.510;6.686;2023-07-31T08:42:31;96598.91;;;23.21;66.84
57644;BME280;43474;46.510;6.686;2023-07-31T08:44:57;96595.56;;;23.24;66.96
57644;BME280;43474;46.510;6.686;2023-07-31T08:47:25;96600.19;;;23.24;67.03
57644;BME280;43474;46.510;6.686;2023-07-31T08:49:52;96599.88;;;23.25;66.93
57644;BME280;43474;46.510;6.686;2023-07-31T08:52:18;96596.84;;;23.27;67.08
57644;BME280;43474;46.510;6.686;2023-07-31T08:54:43;96587.94;;;23.26;67.21
57644;BME280;43474;46.510;6.686;2023-07-31T08:57:09;96584.13;;;23.27;67.08
57644;BME280;43474;46.510;6.686;2023-07-31T08:59:36;96579.81;;;23.26;67.20
57644;BME280;43474;46.510;6.686;2023-07-31T09:02:05;96587.66;;;23.28;67.22
57644;BME280;43474;46.510;6.686;2023-07-31T09:04:32;96577.13;;;23.26;67.36
57644;BME280;43474;46.510;6.686;2023-07-31T09:07:01;96573.78;;;23.29;67.59
57644;BME280;43474;46.510;6.686;2023-07-31T09:09:33;96575.72;;;23.29;67.67
57644;BME280;43474;46.510;6.686;2023-07-31T09:11:58;96566.47;;;23.30;67.56
57644;BME280;43474;46.510;6.686;2023-07-31T09:14:25;96569.97;;;23.30;67.56
57644;BME280;43474;46.510;6.686;2023-07-31T09:17:00;96565.69;;;23.29;67.51
57644;BME280;43474;46.510;6.686;2023-07-31T09:19:32;96561.88;;;23.30;67.57
57644;BME280;43474;46.510;6.686;2023-07-31T09:21:59;96552.63;;;23.31;67.59
57644;BME280;43474;46.510;6.686;2023-07-31T09:24:26;96553.44;;;23.32;67.49
57644;BME280;43474;46.510;6.686;2023-07-31T09:26:54;96545.31;;;23.32;67.67
57644;BME280;43474;46.510;6.686;2023-07-31T09:29:20;96553.13;;;23.33;67.64
57644;BME280;43474;46.510;6.686;2023-07-31T09:31:46;96552.00;;;23.34;67.81
57644;BME280;43474;46.510;6.686;2023-07-31T09:34:11;96546.59;;;23.34;67.68
57644;BME280;43474;46.510;6.686;2023-07-31T09:36:50;96542.00;;;23.35;67.78
57644;BME280;43474;46.510;6.686;2023-07-31T09:39:19;96528.47;;;23.35;67.80
57644;BME280;43474;46.510;6.686;2023-07-31T09:41:47;96533.88;;;23.35;67.87
57644;BME280;43474;46.510;6.686;2023-07-31T09:44:18;96526.56;;;23.35;67.78
57644;BME280;43474;46.510;6.686;2023-07-31T09:46:45;96528.13;;;23.36;67.86
57644;BME280;43474;46.510;6.686;2023-07-31T09:49:13;96527.34;;;23.36;67.97
57644;BME280;43474;46.510;6.686;2023-07-31T09:51:39;96513.53;;;23.37;67.86
57644;BME280;43474;46.510;6.686;2023-07-31T09:54:13;96515.41;;;23.37;67.85
57644;BME280;43474;46.510;6.686;2023-07-31T09:56:43;96509.72;;;23.38;67.84
57644;BME280;43474;46.510;6.686;2023-07-31T09:59:11;96499.69;;;23.39;67.91
57644;BME280;43474;46.510;6.686;2023-07-31T10:01:38;96504.28;;;23.38;68.03
57644;BME280;43474;46.510;6.686;2023-07-31T10:04:05;96500.81;;;23.38;67.73
57644;BME280;43474;46.510;6.686;2023-07-31T10:06:33;96493.47;;;23.38;67.65
57644;BME280;43474;46.510;6.686;2023-07-31T10:09:00;96499.69;;;23.39;67.68
57644;BME280;43474;46.510;6.686;2023-07-31T10:11:27;96491.25;;;23.40;67.58
57644;BME280;43474;46.510;6.686;2023-07-31T10:13:54;96487.75;;;23.40;67.56
57644;BME280;43474;46.510;6.686;2023-07-31T10:16:20;96485.38;;;23.38;67.25
57644;BME280;43474;46.510;6.686;2023-07-31T10:18:47;96485.03;;;23.40;67.33
57644;BME280;43474;46.510;6.686;2023-07-31T10:21:13;96482.34;;;23.40;67.17
57644;BME280;43474;46.510;6.686;2023-07-31T10:23:40;96483.13;;;23.40;67.08
57644;BME280;43474;46.510;6.686;2023-07-31T10:26:08;96485.84;;;23.40;67.03
57644;BME280;43474;46.510;6.686;2023-07-31T10:28:35;96483.13;;;23.40;66.77
57644;BME280;43474;46.510;6.686;2023-07-31T10:31:02;96476.94;;;23.40;66.55
57644;BME280;43474;46.510;6.686;2023-07-31T10:33:29;96464.19;;;23.40;66.28
57644;BME280;43474;46.510;6.686;2023-07-31T10:36:22;96475.00;;;23.40;66.41
57644;BME280;43474;46.510;6.686;2023-07-31T10:38:48;96470.72;;;23.39;66.26
57644;BME280;43474;46.510;6.686;2023-07-31T10:41:14;96478.50;;;23.41;66.14
57644;BME280;43474;46.510;6.686;2023-07-31T10:43:40;96462.59;;;23.39;66.18
57644;BME280;43474;46.510;6.686;2023-07-31T10:46:11;96459.44;;;23.37;66.31
57644;BME280;43474;46.510;6.686;2023-07-31T10:48:38;96462.94;;;23.38;66.13
57644;BME280;43474;46.510;6.686;2023-07-31T10:51:11;96453.69;;;23.39;66.26
57644;BME280;43474;46.510;6.686;2023-07-31T10:53:38;96459.13;;;23.39;66.04
57644;BME280;43474;46.510;6.686;2023-07-31T10:56:09;96452.91;;;23.38;65.55
57644;BME280;43474;46.510;6.686;2023-07-31T10:58:37;96460.69;;;23.40;65.55
57644;BME280;43474;46.510;6.686;2023-07-31T11:01:04;96453.69;;;23.39;65.66
57644;BME280;43474;46.510;6.686;2023-07-31T11:03:45;96453.38;;;23.40;65.12
57644;BME280;43474;46.510;6.686;2023-07-31T11:06:10;96450.66;;;23.40;65.35
57644;BME280;43474;46.510;6.686;2023-07-31T11:08:47;96451.47;;;23.41;65.00
57644;BME280;43474;46.510;6.686;2023-07-31T11:11:14;96448.75;;;23.41;64.82
57644;BME280;43474;46.510;6.686;2023-07-31T11:13:42;96448.75;;;23.41;64.93
57644;BME280;43474;46.510;6.686;2023-07-31T11:16:09;96454.97;;;23.41;64.68
57644;BME280;43474;46.510;6.686;2023-07-31T11:18:35;96455.75;;;23.42;64.92
57644;BME280;43474;46.510;6.686;2023-07-31T11:21:00;96451.47;;;23.41;64.77
57644;BME280;43474;46.510;6.686;2023-07-31T11:23:26;96451.16;;;23.42;64.75
57644;BME280;43474;46.510;6.686;2023-07-31T11:25:52;96450.03;;;23.43;64.68
57644;BME280;43474;46.510;6.686;2023-07-31T11:28:19;96443.06;;;23.42;64.65
57644;BME280;43474;46.510;6.686;2023-07-31T11:30:45;96454.66;;;23.43;64.52
57644;BME280;43474;46.510;6.686;2023-07-31T11:33:13;96450.84;;;23.44;64.48
57644;BME280;43474;46.510;6.686;2023-07-31T11:35:46;96442.22;;;23.42;64.14
57644;BME280;43474;46.510;6.686;2023-07-31T11:38:21;96455.13;;;23.45;64.12
57644;BME280;43474;46.510;6.686;2023-07-31T11:40:48;96446.56;;;23.43;64.41
57644;BME280;43474;46.510;6.686;2023-07-31T11:43:14;96439.22;;;23.43;64.14
57644;BME280;43474;46.510;6.686;2023-07-31T11:45:46;96438.44;;;23.43;64.38
57644;BME280;43474;46.510;6.686;2023-07-31T11:48:24;96438.91;;;23.45;64.38
57644;BME280;43474;46.510;6.686;2023-07-31T11:50:51;96431.91;;;23.44;64.29
57644;BME280;43474;46.510;6.686;2023-07-31T11:53:19;96433.81;;;23.43;63.97
57644;BME280;43474;46.510;6.686;2023-07-31T11:55:45;96433.31;;;23.41;64.72
57644;BME280;43474;46.510;6.686;2023-07-31T11:58:13;96419.50;;;23.43;64.53
57644;BME280;43474;46.510;6.686;2023-07-31T12:00:40;96415.69;;;23.44;64.90
57644;BME280;43474;46.510;6.686;2023-07-31T12:03:06;96405.97;;;23.43;64.64
57644;BME280;43474;46.510;6.686;2023-07-31T12:05:32;96404.06;;;23.43;64.80
57644;BME280;43474;46.510;6.686;2023-07-31T12:07:58;96389.75;;;23.43;64.91
57644;BME280;43474;46.510;6.686;2023-07-31T12:10:31;96387.03;;;23.43;65.05
57644;BME280;43474;46.510;6.686;2023-07-31T12:13:24;96380.84;;;23.42;65.11
57644;BME280;43474;46.510;6.686;2023-07-31T12:15:56;96384.34;;;23.43;65.06
57644;BME280;43474;46.510;6.686;2023-07-31T12:18:24;96379.72;;;23.43;65.27
57644;BME280;43474;46.510;6.686;2023-07-31T12:20:55;96374.31;;;23.43;65.20
57644;BME280;43474;46.510;6.686;2023-07-31T12:23:29;96358.88;;;23.44;65.29
57644;BME280;43474;46.510;6.686;2023-07-31T12:31:11;96337.41;;;23.39;65.45
57644;BME280;43474;46.510;6.686;2023-07-31T12:33:38;96338.81;;;23.45;65.60
57644;BME280;43474;46.510;6.686;2023-07-31T12:36:09;96328.78;;;23.45;65.60
57644;BME280;43474;46.510;6.686;2023-07-31T12:38:35;96334.19;;;23.45;65.69
57644;BME280;43474;46.510;6.686;2023-07-31T12:41:00;96328.00;;;23.45;65.75
57644;BME280;43474;46.510;6.686;2023-07-31T12:43:26;96325.63;;;23.43;65.78
57644;BME280;43474;46.510;6.686;2023-07-31T12:45:54;96334.19;;;23.45;65.92
57644;BME280;43474;46.510;6.686;2023-07-31T12:48:19;96334.19;;;23.45;65.81
57644;BME280;43474;46.510;6.686;2023-07-31T12:50:45;96326.88;;;23.46;66.14
57644;BME280;43474;46.510;6.686;2023-07-31T12:53:10;96327.66;;;23.46;66.23
57644;BME280;43474;46.510;6.686;2023-07-31T12:55:36;96326.09;;;23.45;66.12
57644;BME280;43474;46.510;6.686;2023-07-31T12:58:02;96326.09;;;23.45;66.30
57644;BME280;43474;46.510;6.686;2023-07-31T13:00:28;96318.75;;;23.46;66.27
57644;BME280;43474;46.510;6.686;2023-07-31T13:02:54;96307.94;;;23.46;66.32
57644;BME280;43474;46.510;6.686;2023-07-31T13:05:20;96298.72;;;23.47;66.44
57644;BME280;43474;46.510;6.686;2023-07-31T13:07:46;96295.53;;;23.45;66.23